sensor_id;sensor_type;location;lat;lon;timestamp;pressure;altitude;pressure_sealevel;temperature;humidity
8717;BME280;4395;48.554;8.820;2024-01-06T00:00:48;94693.28;;;4.89;73.79
8717;BME280;4395;48.554;8.820;2024-01-06T00:02:51;94689.88;;;4.84;73.63
8717;BME280;4395;48.554;8.820;2024-01-06T00:04:54;94688.53;;;4.76;73.88
8717;BME280;4395;48.554;8.820;2024-01-06T00:06:57;94686.44;;;4.73;74.29
8717;BME280;4395;48.554;8.820;2024-01-06T00:09:00;94691.06;;;4.71;74.19
8717;BME280;4395;48.554;8.820;2024-01-06T00:11:03;94691.84;;;4.71;74.18
8717;BME280;4395;48.554;8.820;2024-01-06T00:13:05;94700.91;;;4.74;74.50
8717;BME280;4395;48.554;8.820;2024-01-06T00:15:08;94695.75;;;4.74;74.22
8717;BME280;4395;48.554;8.820;2024-01-06T00:17:12;94699.63;;;4.77;74.45
8717;BME280;4395;48.554;8.820;2024-01-06T00:19:15;94703.53;;;4.79;74.78
8717;BME280;4395;48.554;8.820;2024-01-06T00:21:19;94700.47;;;4.87;74.93
8717;BME280;4395;48.554;8.820;2024-01-06T00:23:23;94701.06;;;4.94;75.07
8717;BME280;4395;48.554;8.820;2024-01-06T00:25:26;94707.28;;;4.98;75.08
8717;BME280;4395;48.554;8.820;2024-01-06T00:27:28;94707.28;;;4.98;75.05
8717;BME280;4395;48.554;8.820;2024-01-06T00:29:30;94709.91;;;5.03;75.03
8717;BME280;4395;48.554;8.820;2024-01-06T00:31:33;94707.31;;;5.03;74.87
8717;BME280;4395;48.554;8.820;2024-01-06T00:33:36;94707.09;;;5.05;75.25
8717;BME280;4395;48.554;8.820;2024-01-06T00:35:38;94714.81;;;5.05;75.26
8717;BME280;4395;48.554;8.820;2024-01-06T00:37:40;94709.13;;;5.08;75.30
8717;BME280;4395;48.554;8.820;2024-01-06T00:39:45;94707.34;;;5.08;75.26
8717;BME280;4395;48.554;8.820;2024-01-06T00:41:47;94714.06;;;5.10;75.17
8717;BME280;4395;48.554;8.820;2024-01-06T00:43:50;94721.78;;;5.10;75.20
8717;BME280;4395;48.554;8.820;2024-01-06T00:45:53;94733.91;;;5.09;75.12
8717;BME280;4395;48.554;8.820;2024-01-06T00:47:56;94740.94;;;5.14;75.15
8717;BME280;4395;48.554;8.820;2024-01-06T00:49:58;94735.78;;;5.14;74.76
8717;BME280;4395;48.554;8.820;2024-01-06T00:52:01;94739.84;;;5.10;74.89
8717;BME280;4395;48.554;8.820;2024-01-06T00:54:04;94738.81;;;5.05;75.32
8717;BME280;4395;48.554;8.820;2024-01-06T00:56:08;94745.53;;;5.06;75.35
8717;BME280;4395;48.554;8.820;2024-01-06T00:58:11;94743.19;;;5.05;75.58
8717;BME280;4395;48.554;8.820;2024-01-06T01:00:14;94748.34;;;5.05;75.32
8717;BME280;4395;48.554;8.820;2024-01-06T01:02:17;94744.47;;;5.02;75.60
8717;BME280;4395;48.554;8.820;2024-01-06T01:04:20;94744.47;;;5.02;75.69
8717;BME280;4395;48.554;8.820;2024-01-06T01:06:22;94755.81;;;5.01;75.58
8717;BME280;4395;48.554;8.820;2024-01-06T01:08:24;94747.50;;;4.94;75.40
8717;BME280;4395;48.554;8.820;2024-01-06T01:10:26;94756.19;;;4.88;75.40
8717;BME280;4395;48.554;8.820;2024-01-06T01:12:30;94754.09;;;4.80;75.63
8717;BME280;4395;48.554;8.820;2024-01-06T01:14:33;94752.75;;;4.78;75.99
8717;BME280;4395;48.554;8.820;2024-01-06T01:16:36;94749.34;;;4.72;75.89
8717;BME280;4395;48.554;8.820;2024-01-06T01:18:39;94749.81;;;4.64;76.20
8717;BME280;4395;48.554;8.820;2024-01-06T01:20:42;94752.13;;;4.65;76.18
8717;BME280;4395;48.554;8.820;2024-01-06T01:22:43;94745.66;;;4.63;76.25
8717;BME280;4395;48.554;8.820;2024-01-06T01:24:46;94744.09;;;4.62;76.42
8717;BME280;4395;48.554;8.820;2024-01-06T01:26:49;94749.25;;;4.62;76.13
8717;BME280;4395;48.554;8.820;2024-01-06T01:28:53;94754.41;;;4.62;76.25
8717;BME280;4395;48.554;8.820;2024-01-06T01:30:56;94753.88;;;4.60;76.04
8717;BME280;4395;48.554;8.820;2024-01-06T01:32:59;94760.06;;;4.59;76.35
8717;BME280;4395;48.554;8.820;2024-01-06T01:35:03;94762.13;;;4.57;76.28
8717;BME280;4395;48.554;8.820;2024-01-06T01:37:06;94764.63;;;4.52;76.68
8717;BME280;4395;48.554;8.820;2024-01-06T01:39:08;94769.31;;;4.55;76.62
8717;BME280;4395;48.554;8.820;2024-01-06T01:41:11;94774.47;;;4.55;76.65
8717;BME280;4395;48.554;8.820;2024-01-06T01:43:17;94779.94;;;4.58;76.74
8717;BME280;4395;48.554;8.820;2024-01-06T01:45:21;94773.22;;;4.57;76.40
8717;BME280;4395;48.554;8.820;2024-01-06T01:47:24;94776.28;;;4.59;76.61
8717;BME280;4395;48.554;8.820;2024-01-06T01:49:27;94774.25;;;4.61;76.21
8717;BME280;4395;48.554;8.820;2024-01-06T01:51:31;94775.53;;;4.59;76.29
8717;BME280;4395;48.554;8.820;2024-01-06T01:53:35;94794.06;;;4.56;76.16
8717;BME280;4395;48.554;8.820;2024-01-06T01:55:39;94797.44;;;4.56;76.12
8717;BME280;4395;48.554;8.820;2024-01-06T01:57:42;94790.94;;;4.54;76.76
8717;BME280;4395;48.554;8.820;2024-01-06T01:59:45;94795.09;;;4.55;76.69
8717;BME280;4395;48.554;8.820;2024-01-06T02:01:49;94792.03;;;4.58;76.34
8717;BME280;4395;48.554;8.820;2024-01-06T02:03:52;94800.72;;;4.52;76.69
8717;BME280;4395;48.554;8.820;2024-01-06T02:05:55;94797.97;;;4.58;76.57
8717;BME280;4395;48.554;8.820;2024-01-06T02:07:58;94799.00;;;4.57;76.54
8717;BME280;4395;48.554;8.820;2024-01-06T02:10:01;94805.41;;;4.55;76.43
8717;BME280;4395;48.554;8.820;2024-01-06T02:12:04;94806.19;;;4.55;76.67
8717;BME280;4395;48.554;8.820;2024-01-06T02:14:07;94803.38;;;4.57;76.54
8717;BME280;4395;48.554;8.820;2024-01-06T02:16:10;94801.84;;;4.61;76.61
8717;BME280;4395;48.554;8.820;2024-01-06T02:18:14;94807.00;;;4.61;76.45
8717;BME280;4395;48.554;8.820;2024-01-06T02:20:18;94798.22;;;4.57;76.21
8717;BME280;4395;48.554;8.820;2024-01-06T02:22:23;94809.53;;;4.56;76.58
8717;BME280;4395;48.554;8.820;2024-01-06T02:24:25;94798.25;;;4.62;76.22
8717;BME280;4395;48.554;8.820;2024-01-06T02:26:28;94798.00;;;4.63;76.24
8717;BME280;4395;48.554;8.820;2024-01-06T02:28:30;94803.47;;;4.67;76.47
8717;BME280;4395;48.554;8.820;2024-01-06T02:30:33;94800.44;;;4.75;75.89
8717;BME280;4395;48.554;8.820;2024-01-06T02:32:36;94805.81;;;4.68;76.01
8717;BME280;4395;48.554;8.820;2024-01-06T02:34:38;94802.97;;;4.70;75.84
8717;BME280;4395;48.554;8.820;2024-01-06T02:36:42;94802.97;;;4.70;75.89
8717;BME280;4395;48.554;8.820;2024-01-06T02:38:46;94812.00;;;4.72;75.81
8717;BME280;4395;48.554;8.820;2024-01-06T02:40:48;94810.44;;;4.71;75.74
8717;BME280;4395;48.554;8.820;2024-01-06T02:42:51;94812.78;;;4.73;75.57
8717;BME280;4395;48.554;8.820;2024-01-06T02:44:54;94819.25;;;4.76;74.98
8717;BME280;4395;48.554;8.820;2024-01-06T02:46:56;94821.53;;;4.72;75.17
8717;BME280;4395;48.554;8.820;2024-01-06T02:48:59;94816.91;;;4.69;75.00
8717;BME280;4395;48.554;8.820;2024-01-06T02:51:02;94817.13;;;4.67;74.79
8717;BME280;4395;48.554;8.820;2024-01-06T02:53:04;94814.78;;;4.66;74.81
8717;BME280;4395;48.554;8.820;2024-01-06T02:55:09;94819.97;;;4.71;74.22
8717;BME280;4395;48.554;8.820;2024-01-06T02:57:11;94813.94;;;4.60;74.29
8717;BME280;4395;48.554;8.820;2024-01-06T02:59:15;94816.19;;;4.52;74.46
8717;BME280;4395;48.554;8.820;2024-01-06T03:01:17;94817.44;;;4.49;74.83
8717;BME280;4395;48.554;8.820;2024-01-06T03:03:20;94812.00;;;4.46;74.51
8717;BME280;4395;48.554;8.820;2024-01-06T03:05:23;94810.16;;;4.41;75.00
8717;BME280;4395;48.554;8.820;2024-01-06T03:07:26;94807.25;;;4.38;75.12
8717;BME280;4395;48.554;8.820;2024-01-06T03:09:28;94811.41;;;4.39;75.17
8717;BME280;4395;48.554;8.820;2024-01-06T03:11:32;94806.72;;;4.35;75.59
8717;BME280;4395;48.554;8.820;2024-01-06T03:13:34;94810.38;;;4.40;75.75
8717;BME280;4395;48.554;8.820;2024-01-06T03:15:37;94808.59;;;4.40;75.57
8717;BME280;4395;48.554;8.820;2024-01-06T03:17:40;94803.25;;;4.47;75.02
8717;BME280;4395;48.554;8.820;2024-01-06T03:19:43;94804.50;;;4.44;75.34
8717;BME280;4395;48.554;8.820;2024-01-06T03:21:45;94806.84;;;4.46;75.53
8717;BME280;4395;48.554;8.820;2024-01-06T03:23:48;94804.28;;;4.46;74.74
8717;BME280;4395;48.554;8.820;2024-01-06T03:25:51;94803.72;;;4.44;74.84
8717;BME280;4395;48.554;8.820;2024-01-06T03:27:55;94807.50;;;4.36;74.64
8717;BME280;4395;48.554;8.820;2024-01-06T03:29:57;94807.69;;;4.29;74.94
8717;BME280;4395;48.554;8.820;2024-01-06T03:32:00;94804.09;;;4.30;74.97
8717;BME280;4395;48.554;8.820;2024-01-06T03:34:01;94803.00;;;4.26;74.94
8717;BME280;4395;48.554;8.820;2024-01-06T03:36:05;94807.09;;;4.22;75.38
8717;BME280;4395;48.554;8.820;2024-01-06T03:38:08;94798.34;;;4.23;75.30
8717;BME280;4395;48.554;8.820;2024-01-06T03:40:12;94799.38;;;4.22;75.20
8717;BME280;4395;48.554;8.820;2024-01-06T03:42:15;94799.31;;;4.17;75.32
8717;BME280;4395;48.554;8.820;2024-01-06T03:44:18;94802.91;;;4.16;75.36
8717;BME280;4395;48.554;8.820;2024-01-06T03:46:21;94810.56;;;4.11;75.50
8717;BME280;4395;48.554;8.820;2024-01-06T03:48:23;94805.41;;;4.11;75.83
8717;BME280;4395;48.554;8.820;2024-01-06T03:50:26;94799.47;;;4.11;75.80
8717;BME280;4395;48.554;8.820;2024-01-06T03:52:28;94793.56;;;4.10;75.68
8717;BME280;4395;48.554;8.820;2024-01-06T03:54:30;94797.63;;;4.06;75.58
8717;BME280;4395;48.554;8.820;2024-01-06T03:56:33;94806.06;;;4.02;75.80
8717;BME280;4395;48.554;8.820;2024-01-06T03:58:36;94803.44;;;3.96;76.10
8717;BME280;4395;48.554;8.820;2024-01-06T04:00:40;94805.78;;;3.98;76.39
8717;BME280;4395;48.554;8.820;2024-01-06T04:02:42;94805.50;;;3.99;76.38
8717;BME280;4395;48.554;8.820;2024-01-06T04:04:45;94807.16;;;4.06;75.57
8717;BME280;4395;48.554;8.820;2024-01-06T04:06:48;94795.75;;;4.02;76.19
8717;BME280;4395;48.554;8.820;2024-01-06T04:08:52;94802.16;;;3.99;76.02
8717;BME280;4395;48.554;8.820;2024-01-06T04:10:56;94800.75;;;4.08;75.54
8717;BME280;4395;48.554;8.820;2024-01-06T04:12:59;94803.78;;;4.05;75.32
8717;BME280;4395;48.554;8.820;2024-01-06T04:15:02;94814.53;;;3.97;75.32
8717;BME280;4395;48.554;8.820;2024-01-06T04:17:06;94806.25;;;3.95;75.14
8717;BME280;4395;48.554;8.820;2024-01-06T04:19:08;94809.38;;;3.97;75.21
8717;BME280;4395;48.554;8.820;2024-01-06T04:21:12;94807.50;;;3.92;75.23
8717;BME280;4395;48.554;8.820;2024-01-06T04:23:15;94809.53;;;3.90;75.32
8717;BME280;4395;48.554;8.820;2024-01-06T04:25:17;94808.28;;;3.93;75.16
8717;BME280;4395;48.554;8.820;2024-01-06T04:27:20;94805.47;;;3.94;75.03
8717;BME280;4395;48.554;8.820;2024-01-06T04:29:23;94820.59;;;3.91;74.98
8717;BME280;4395;48.554;8.820;2024-01-06T04:31:25;94817.72;;;3.87;75.32
8717;BME280;4395;48.554;8.820;2024-01-06T04:33:29;94817.31;;;3.95;75.66
8717;BME280;4395;48.554;8.820;2024-01-06T04:35:32;94818.56;;;3.93;75.15
8717;BME280;4395;48.554;8.820;2024-01-06T04:37:35;94818.56;;;3.93;75.15
8717;BME280;4395;48.554;8.820;2024-01-06T04:39:38;94815.00;;;3.94;75.05
8717;BME280;4395;48.554;8.820;2024-01-06T04:41:41;94816.56;;;3.95;74.92
8717;BME280;4395;48.554;8.820;2024-01-06T04:43:44;94818.09;;;3.96;74.78
8717;BME280;4395;48.554;8.820;2024-01-06T04:45:46;94826.84;;;3.95;75.02
8717;BME280;4395;48.554;8.820;2024-01-06T04:47:49;94822.25;;;3.97;75.35
8717;BME280;4395;48.554;8.820;2024-01-06T04:49:52;94829.47;;;4.00;74.60
8717;BME280;4395;48.554;8.820;2024-01-06T04:51:55;94828.19;;;3.97;74.44
8717;BME280;4395;48.554;8.820;2024-01-06T04:53:58;94825.28;;;3.94;74.70
8717;BME280;4395;48.554;8.820;2024-01-06T04:56:01;94828.09;;;3.92;74.85
8717;BME280;4395;48.554;8.820;2024-01-06T04:58:03;94826.38;;;3.98;74.86
8717;BME280;4395;48.554;8.820;2024-01-06T05:00:06;94825.34;;;3.99;74.98
8717;BME280;4395;48.554;8.820;2024-01-06T05:02:10;94834.16;;;4.03;74.64
8717;BME280;4395;48.554;8.820;2024-01-06T05:04:11;94825.88;;;4.01;74.92
8717;BME280;4395;48.554;8.820;2024-01-06T05:06:16;94828.53;;;4.06;75.29
8717;BME280;4395;48.554;8.820;2024-01-06T05:08:18;94833.75;;;4.11;75.37
8717;BME280;4395;48.554;8.820;2024-01-06T05:10:23;94836.94;;;4.18;75.42
8717;BME280;4395;48.554;8.820;2024-01-06T05:12:26;94838.03;;;4.22;75.43
8717;BME280;4395;48.554;8.820;2024-01-06T05:14:29;94835.97;;;4.24;75.57
8717;BME280;4395;48.554;8.820;2024-01-06T05:16:31;94835.50;;;4.27;75.39
8717;BME280;4395;48.554;8.820;2024-01-06T05:18:34;94831.13;;;4.28;75.25
8717;BME280;4395;48.554;8.820;2024-01-06T05:20:37;94835.81;;;4.31;74.94
8717;BME280;4395;48.554;8.820;2024-01-06T05:22:40;94840.66;;;4.27;75.34
8717;BME280;4395;48.554;8.820;2024-01-06T05:24:43;94838.63;;;4.29;75.26
8717;BME280;4395;48.554;8.820;2024-01-06T05:26:46;94841.50;;;4.33;75.13
8717;BME280;4395;48.554;8.820;2024-01-06T05:28:49;94842.78;;;4.35;75.02
8717;BME280;4395;48.554;8.820;2024-01-06T05:30:51;94853.16;;;4.41;75.04
8717;BME280;4395;48.554;8.820;2024-01-06T05:32:54;94850.66;;;4.46;74.74
8717;BME280;4395;48.554;8.820;2024-01-06T05:34:57;94855.81;;;4.46;74.13
8717;BME280;4395;48.554;8.820;2024-01-06T05:37:00;94846.75;;;4.43;74.05
8717;BME280;4395;48.554;8.820;2024-01-06T05:39:04;94850.59;;;4.41;74.46
8717;BME280;4395;48.554;8.820;2024-01-06T05:41:07;94852.47;;;4.45;74.48
8717;BME280;4395;48.554;8.820;2024-01-06T05:43:09;94856.34;;;4.48;74.20
8717;BME280;4395;48.554;8.820;2024-01-06T05:45:12;94855.81;;;4.46;74.23
8717;BME280;4395;48.554;8.820;2024-01-06T05:47:15;94857.38;;;4.47;74.03
8717;BME280;4395;48.554;8.820;2024-01-06T05:49:18;94869.00;;;4.49;73.93
8717;BME280;4395;48.554;8.820;2024-01-06T05:51:21;94860.72;;;4.47;73.93
8717;BME280;4395;48.554;8.820;2024-01-06T05:53:24;94861.81;;;4.51;73.87
8717;BME280;4395;48.554;8.820;2024-01-06T05:55:28;94866.66;;;4.48;73.52
8717;BME280;4395;48.554;8.820;2024-01-06T05:57:30;94877.47;;;4.45;73.80
8717;BME280;4395;48.554;8.820;2024-01-06T05:59:34;94874.66;;;4.46;73.97
8717;BME280;4395;48.554;8.820;2024-01-06T06:01:37;94877.47;;;4.45;73.56
8717;BME280;4395;48.554;8.820;2024-01-06T06:03:40;94879.03;;;4.46;73.80
8717;BME280;4395;48.554;8.820;2024-01-06T06:05:43;94885.75;;;4.47;73.91
8717;BME280;4395;48.554;8.820;2024-01-06T06:07:46;94889.38;;;4.51;73.87
8717;BME280;4395;48.554;8.820;2024-01-06T06:09:49;94890.69;;;4.53;73.90
8717;BME280;4395;48.554;8.820;2024-01-06T06:11:53;94891.47;;;4.54;73.73
8717;BME280;4395;48.554;8.820;2024-01-06T06:13:56;94900.22;;;4.53;73.50
8717;BME280;4395;48.554;8.820;2024-01-06T06:15:59;94896.03;;;4.47;72.98
8717;BME280;4395;48.554;8.820;2024-01-06T06:18:00;94902.16;;;4.41;73.46
8717;BME280;4395;48.554;8.820;2024-01-06T06:20:04;94905.50;;;4.41;73.66
8717;BME280;4395;48.554;8.820;2024-01-06T06:22:08;94905.72;;;4.40;73.24
8717;BME280;4395;48.554;8.820;2024-01-06T06:24:10;94909.28;;;4.33;72.77
8717;BME280;4395;48.554;8.820;2024-01-06T06:26:13;94917.00;;;4.33;72.80
8717;BME280;4395;48.554;8.820;2024-01-06T06:28:17;94909.97;;;4.29;72.60
8717;BME280;4395;48.554;8.820;2024-01-06T06:30:20;94912.88;;;4.32;72.26
8717;BME280;4395;48.554;8.820;2024-01-06T06:32:23;94919.50;;;4.28;72.76
8717;BME280;4395;48.554;8.820;2024-01-06T06:34:26;94921.63;;;4.31;72.39
8717;BME280;4395;48.554;8.820;2024-01-06T06:36:29;94921.53;;;4.26;72.06
8717;BME280;4395;48.554;8.820;2024-01-06T06:38:32;94925.69;;;4.27;72.47
8717;BME280;4395;48.554;8.820;2024-01-06T06:40:34;94928.88;;;4.34;72.23
8717;BME280;4395;48.554;8.820;2024-01-06T06:42:37;94934.50;;;4.31;72.25
8717;BME280;4395;48.554;8.820;2024-01-06T06:44:41;94934.03;;;4.34;71.69
8717;BME280;4395;48.554;8.820;2024-01-06T06:46:44;94930.91;;;4.32;71.97
8717;BME280;4395;48.554;8.820;2024-01-06T06:48:47;94935.75;;;4.29;71.99
8717;BME280;4395;48.554;8.820;2024-01-06T06:50:50;94936.28;;;4.31;71.87
8717;BME280;4395;48.554;8.820;2024-01-06T06:52:52;94939.34;;;4.28;71.77
8717;BME280;4395;48.554;8.820;2024-01-06T06:54:55;94935.44;;;4.25;72.10
8717;BME280;4395;48.554;8.820;2024-01-06T06:56:59;94939.03;;;4.24;72.35
8717;BME280;4395;48.554;8.820;2024-01-06T06:59:02;94945.28;;;4.28;72.26
8717;BME280;4395;48.554;8.820;2024-01-06T07:01:06;94947.94;;;4.33;72.83
8717;BME280;4395;48.554;8.820;2024-01-06T07:03:09;94944.06;;;4.36;72.46
8717;BME280;4395;48.554;8.820;2024-01-06T07:05:12;94945.41;;;4.39;72.57
8717;BME280;4395;48.554;8.820;2024-01-06T07:07:15;94949.00;;;4.38;71.88
8717;BME280;4395;48.554;8.820;2024-01-06T07:09:18;94947.16;;;4.33;72.21
8717;BME280;4395;48.554;8.820;2024-01-06T07:11:24;94949.97;;;4.31;72.31
8717;BME280;4395;48.554;8.820;2024-01-06T07:13:26;94950.44;;;4.28;72.40
8717;BME280;4395;48.554;8.820;2024-01-06T07:15:28;94954.47;;;4.24;72.54
8717;BME280;4395;48.554;8.820;2024-01-06T07:17:32;94952.44;;;4.26;72.52
8717;BME280;4395;48.554;8.820;2024-01-06T07:19:35;94953.69;;;4.24;72.83
8717;BME280;4395;48.554;8.820;2024-01-06T07:21:38;94954.47;;;4.24;72.57
8717;BME280;4395;48.554;8.820;2024-01-06T07:23:41;94947.75;;;4.23;72.81
8717;BME280;4395;48.554;8.820;2024-01-06T07:25:45;94947.75;;;4.23;72.62
8717;BME280;4395;48.554;8.820;2024-01-06T07:27:47;94958.06;;;4.23;72.96
8717;BME280;4395;48.554;8.820;2024-01-06T07:29:53;94959.94;;;4.28;72.85
8717;BME280;4395;48.554;8.820;2024-01-06T07:31:56;94963.84;;;4.30;72.09
8717;BME280;4395;48.554;8.820;2024-01-06T07:34:01;94957.16;;;4.29;71.98
8717;BME280;4395;48.554;8.820;2024-01-06T07:36:04;94963.78;;;4.25;72.07
8717;BME280;4395;48.554;8.820;2024-01-06T07:38:06;94964.78;;;4.24;71.71
8717;BME280;4395;48.554;8.820;2024-01-06T07:40:10;94975.09;;;4.24;72.04
8717;BME280;4395;48.554;8.820;2024-01-06T07:42:14;94973.53;;;4.23;71.53
8717;BME280;4395;48.554;8.820;2024-01-06T07:44:17;94975.59;;;4.21;72.01
8717;BME280;4395;48.554;8.820;2024-01-06T07:46:24;94979.72;;;4.22;71.89
8717;BME280;4395;48.554;8.820;2024-01-06T07:48:27;94975.59;;;4.21;71.95
8717;BME280;4395;48.554;8.820;2024-01-06T07:50:31;94974.31;;;4.24;72.07
8717;BME280;4395;48.554;8.820;2024-01-06T07:52:33;94974.31;;;4.24;72.32
8717;BME280;4395;48.554;8.820;2024-01-06T07:54:35;94973.84;;;4.27;71.70
8717;BME280;4395;48.554;8.820;2024-01-06T07:56:38;94969.94;;;4.24;71.94
8717;BME280;4395;48.554;8.820;2024-01-06T07:58:41;94974.63;;;4.27;72.20
8717;BME280;4395;48.554;8.820;2024-01-06T08:00:44;94975.41;;;4.28;71.88
8717;BME280;4395;48.554;8.820;2024-01-06T08:02:47;94984.63;;;4.24;71.92
8717;BME280;4395;48.554;8.820;2024-01-06T08:04:50;94978.22;;;4.26;71.93
8717;BME280;4395;48.554;8.820;2024-01-06T08:06:53;94981.53;;;4.22;71.90
8717;BME280;4395;48.554;8.820;2024-01-06T08:08:56;94980.41;;;4.18;71.81
8717;BME280;4395;48.554;8.820;2024-01-06T08:10:59;94979.19;;;4.20;72.12
8717;BME280;4395;48.554;8.820;2024-01-06T08:13:02;94980.75;;;4.21;71.75
8717;BME280;4395;48.554;8.820;2024-01-06T08:15:06;94982.13;;;4.29;71.83
8717;BME280;4395;48.554;8.820;2024-01-06T08:17:10;94980.88;;;4.31;70.92
8717;BME280;4395;48.554;8.820;2024-01-06T08:19:14;94984.94;;;4.27;70.55
8717;BME280;4395;48.554;8.820;2024-01-06T08:21:17;94989.16;;;4.33;70.75
8717;BME280;4395;48.554;8.820;2024-01-06T08:23:21;94986.59;;;4.33;70.73
8717;BME280;4395;48.554;8.820;2024-01-06T08:25:23;94984.00;;;4.33;70.47
8717;BME280;4395;48.554;8.820;2024-01-06T08:27:26;94991.19;;;4.31;70.48
8717;BME280;4395;48.554;8.820;2024-01-06T08:29:29;94990.03;;;4.22;70.64
8717;BME280;4395;48.554;8.820;2024-01-06T08:31:32;94983.06;;;4.23;71.07
8717;BME280;4395;48.554;8.820;2024-01-06T08:33:35;94989.78;;;4.24;71.43
8717;BME280;4395;48.554;8.820;2024-01-06T08:35:38;94993.63;;;4.21;70.84
8717;BME280;4395;48.554;8.820;2024-01-06T08:37:42;94994.63;;;4.20;70.94
8717;BME280;4395;48.554;8.820;2024-01-06T08:39:46;94993.53;;;4.16;71.47
8717;BME280;4395;48.554;8.820;2024-01-06T08:41:49;94993.63;;;4.21;71.77
8717;BME280;4395;48.554;8.820;2024-01-06T08:43:52;94992.91;;;4.26;71.70
8717;BME280;4395;48.554;8.820;2024-01-06T08:45:54;95000.72;;;4.31;72.09
8717;BME280;4395;48.554;8.820;2024-01-06T08:47:56;95003.84;;;4.33;71.37
8717;BME280;4395;48.554;8.820;2024-01-06T08:49:59;95001.50;;;4.31;71.38
8717;BME280;4395;48.554;8.820;2024-01-06T08:52:02;94998.38;;;4.29;70.93
8717;BME280;4395;48.554;8.820;2024-01-06T08:54:05;95000.41;;;4.27;71.50
8717;BME280;4395;48.554;8.820;2024-01-06T08:56:09;95001.19;;;4.28;71.15
8717;BME280;4395;48.554;8.820;2024-01-06T08:58:12;95008.34;;;4.26;71.15
8717;BME280;4395;48.554;8.820;2024-01-06T09:00:16;95015.41;;;4.30;71.13
8717;BME280;4395;48.554;8.820;2024-01-06T09:02:19;95007.25;;;4.39;71.09
8717;BME280;4395;48.554;8.820;2024-01-06T09:04:23;95004.75;;;4.44;71.01
8717;BME280;4395;48.554;8.820;2024-01-06T09:06:25;95013.34;;;4.49;71.01
8717;BME280;4395;48.554;8.820;2024-01-06T09:08:28;95014.75;;;4.57;70.42
8717;BME280;4395;48.554;8.820;2024-01-06T09:10:31;95011.16;;;4.58;69.82
8717;BME280;4395;48.554;8.820;2024-01-06T09:12:35;95015.53;;;4.57;69.05
8717;BME280;4395;48.554;8.820;2024-01-06T09:14:37;95019.13;;;4.56;69.37
8717;BME280;4395;48.554;8.820;2024-01-06T09:16:40;95023.50;;;4.56;69.53
8717;BME280;4395;48.554;8.820;2024-01-06T09:18:42;95024.09;;;4.63;69.94
8717;BME280;4395;48.554;8.820;2024-01-06T09:20:45;95024.41;;;7.34;84.81
8717;BME280;4395;48.554;8.820;2024-01-06T09:22:49;95027.63;;;7.71;72.44
8717;BME280;4395;48.554;8.820;2024-01-06T09:24:52;95027.97;;;7.17;61.85
8717;BME280;4395;48.554;8.820;2024-01-06T09:26:55;95039.13;;;6.71;61.95
8717;BME280;4395;48.554;8.820;2024-01-06T09:28:59;95026.91;;;6.24;63.38
8717;BME280;4395;48.554;8.820;2024-01-06T09:31:02;95034.38;;;5.94;64.34
8717;BME280;4395;48.554;8.820;2024-01-06T09:33:06;95042.00;;;5.78;64.94
8717;BME280;4395;48.554;8.820;2024-01-06T09:35:10;95039.25;;;5.63;65.52
8717;BME280;4395;48.554;8.820;2024-01-06T09:37:13;95039.22;;;5.36;66.53
8717;BME280;4395;48.554;8.820;2024-01-06T09:39:15;95036.31;;;5.33;67.04
8717;BME280;4395;48.554;8.820;2024-01-06T09:41:18;95044.06;;;5.33;67.39
8717;BME280;4395;48.554;8.820;2024-01-06T09:43:23;95047.19;;;5.35;67.70
8717;BME280;4395;48.554;8.820;2024-01-06T09:45:28;95046.16;;;5.36;67.28
8717;BME280;4395;48.554;8.820;2024-01-06T09:47:32;95046.41;;;5.34;67.30
8717;BME280;4395;48.554;8.820;2024-01-06T09:49:38;95038.91;;;5.33;67.00
8717;BME280;4395;48.554;8.820;2024-01-06T09:51:48;95046.72;;;5.38;66.99
8717;BME280;4395;48.554;8.820;2024-01-06T09:53:59;95048.22;;;5.34;67.01
8717;BME280;4395;48.554;8.820;2024-01-06T09:56:03;95054.94;;;5.35;67.26
8717;BME280;4395;48.554;8.820;2024-01-06T09:58:08;95057.72;;;5.28;66.81
8717;BME280;4395;48.554;8.820;2024-01-06T10:00:12;95056.16;;;5.27;66.86
8717;BME280;4395;48.554;8.820;2024-01-06T10:02:17;95046.00;;;5.21;67.25
8717;BME280;4395;48.554;8.820;2024-01-06T10:04:19;95046.97;;;5.15;67.22
8717;BME280;4395;48.554;8.820;2024-01-06T10:06:25;95047.13;;;5.08;66.97
8717;BME280;4395;48.554;8.820;2024-01-06T10:08:29;95053.06;;;5.08;67.52
8717;BME280;4395;48.554;8.820;2024-01-06T10:10:33;95047.50;;;5.17;67.67
8717;BME280;4395;48.554;8.820;2024-01-06T10:12:37;95050.69;;;5.24;68.35
8717;BME280;4395;48.554;8.820;2024-01-06T10:14:40;95050.69;;;5.24;67.50
8717;BME280;4395;48.554;8.820;2024-01-06T10:16:43;95056.31;;;5.21;67.40
8717;BME280;4395;48.554;8.820;2024-01-06T10:18:47;95056.63;;;5.24;67.97
8717;BME280;4395;48.554;8.820;2024-01-06T10:20:54;95053.88;;;5.31;67.73
8717;BME280;4395;48.554;8.820;2024-01-06T10:23:04;95049.84;;;5.40;68.09
8717;BME280;4395;48.554;8.820;2024-01-06T10:25:08;95052.97;;;5.42;67.79
8717;BME280;4395;48.554;8.820;2024-01-06T10:27:12;95057.16;;;5.48;67.40
8717;BME280;4395;48.554;8.820;2024-01-06T10:29:15;95054.09;;;5.51;67.26
8717;BME280;4395;48.554;8.820;2024-01-06T10:31:18;95050.53;;;5.57;67.14
8717;BME280;4395;48.554;8.820;2024-01-06T10:33:21;95051.38;;;5.63;67.56
8717;BME280;4395;48.554;8.820;2024-01-06T10:35:26;95049.88;;;5.67;67.62
8717;BME280;4395;48.554;8.820;2024-01-06T10:37:28;95049.63;;;5.68;66.87
8717;BME280;4395;48.554;8.820;2024-01-06T10:39:31;95049.75;;;5.57;66.99
8717;BME280;4395;48.554;8.820;2024-01-06T10:41:39;95051.03;;;5.54;67.12
8717;BME280;4395;48.554;8.820;2024-01-06T10:43:44;95059.28;;;5.56;67.72
8717;BME280;4395;48.554;8.820;2024-01-06T10:45:46;95059.84;;;5.58;67.65
8717;BME280;4395;48.554;8.820;2024-01-06T10:47:49;95052.16;;;5.63;67.72
8717;BME280;4395;48.554;8.820;2024-01-06T10:49:53;95048.31;;;5.66;67.44
8717;BME280;4395;48.554;8.820;2024-01-06T10:52:05;95053.28;;;5.72;66.91
8717;BME280;4395;48.554;8.820;2024-01-06T10:54:09;95052.69;;;5.65;66.91
8717;BME280;4395;48.554;8.820;2024-01-06T10:56:13;95056.13;;;5.49;67.37
8717;BME280;4395;48.554;8.820;2024-01-06T10:58:17;95055.13;;;5.50;67.64
8717;BME280;4395;48.554;8.820;2024-01-06T11:00:20;95055.13;;;5.50;67.62
8717;BME280;4395;48.554;8.820;2024-01-06T11:02:23;95057.16;;;5.48;67.57
8717;BME280;4395;48.554;8.820;2024-01-06T11:04:26;95046.94;;;5.58;68.19
8717;BME280;4395;48.554;8.820;2024-01-06T11:06:31;95045.97;;;5.64;67.59
8717;BME280;4395;48.554;8.820;2024-01-06T11:08:45;95051.19;;;5.69;67.98
8717;BME280;4395;48.554;8.820;2024-01-06T11:10:51;95049.19;;;5.76;67.85
8717;BME280;4395;48.554;8.820;2024-01-06T11:13:11;95046.13;;;5.79;67.45
8717;BME280;4395;48.554;8.820;2024-01-06T11:17:49;95042.00;;;5.78;67.55
8717;BME280;4395;48.554;8.820;2024-01-06T11:20:04;95044.13;;;5.87;67.64
8717;BME280;4395;48.554;8.820;2024-01-06T11:22:23;95039.75;;;5.87;67.74